Time;durP1;ratioP1;P1;durP2;ratioP2;P2;SDS_P1;SDS_P2;PMS_P1;PMS_P2;Temp;Humidity;BMP_temperature;BMP_pressure;BME280_temperature;BME280_humidity;BME280_pressure;Samples;Min_cycle;Max_cycle;Signal;HPM_P1;HPM_P2
2022/10/07 00:01:52;;;;;;;;;;;;;;;12.65;100.00;96773.03;10571368;28;2066;-75
2022/10/07 00:06:55;;;;;;;;;;;;;;;12.75;100.00;96775.78;10566917;28;1901;-75
2022/10/07 00:11:58;;;;;;;;;;;;;;;12.79;100.00;96774.19;10571156;28;2034;-76
2022/10/07 00:17:02;;;;;;;;;;;;;;;12.62;100.00;96773.56;10567187;28;2066;-77
2022/10/07 00:22:05;;;;;;;;;;;;;;;12.76;100.00;96771.19;10568951;28;2066;-76
2022/10/07 00:27:09;;;;;;;;;;;;;;;12.65;100.00;96765.75;10559914;28;2092;-76
2022/10/07 00:32:14;;;;;;;;;;;;;;;12.63;100.00;96754.41;10558998;28;1782;-75
2022/10/07 00:37:18;;;;;;;;;;;;;;;12.66;100.00;96750.38;10558612;28;2033;-76
2022/10/07 00:42:21;;;;;;;;;;;;;;;12.50;100.00;96744.09;10560905;28;2390;-76
2022/10/07 00:47:24;;;;;;;;;;;;;;;12.50;100.00;96737.91;10563378;28;2065;-75
2022/10/07 00:52:29;;;;;;;;;;;;;;;12.49;100.00;96730.88;10570311;28;2147;-76
2022/10/07 00:57:32;;;;;;;;;;;;;;;12.49;100.00;96725.50;10562202;28;1973;-75
2022/10/07 01:02:35;;;;;;;;;;;;;;;12.49;100.00;96720.09;10555152;28;1972;-76
2022/10/07 01:07:39;;;;;;;;;;;;;;;12.49;100.00;96712.00;10565799;28;1932;-77
2022/10/07 01:12:42;;;;;;;;;;;;;;;12.59;100.00;96714.72;10558914;28;1990;-78
2022/10/07 01:17:46;;;;;;;;;;;;;;;12.54;100.00;96706.66;10558813;28;2082;-76
2022/10/07 01:22:49;;;;;;;;;;;;;;;12.54;100.00;96701.25;10556553;28;2009;-75
2022/10/07 01:27:53;;;;;;;;;;;;;;;12.49;100.00;96698.53;10557538;28;2071;-76
2022/10/07 01:32:58;;;;;;;;;;;;;;;12.45;100.00;96693.63;10561432;28;1996;-75
2022/10/07 01:38:01;;;;;;;;;;;;;;;12.61;100.00;96688.31;10556760;28;2027;-75
2022/10/07 01:43:04;;;;;;;;;;;;;;;12.60;100.00;96684.00;10551798;28;2093;-75
2022/10/07 01:48:08;;;;;;;;;;;;;;;12.50;100.00;96673.97;10551791;28;2030;-75
2022/10/07 01:53:14;;;;;;;;;;;;;;;12.40;100.00;96674.72;10558487;28;1917;-74
2022/10/07 01:58:17;;;;;;;;;;;;;;;12.43;100.00;96670.72;10561395;28;2218;-75
2022/10/07 02:03:20;;;;;;;;;;;;;;;12.50;100.00;96673.97;10549094;28;2045;-74
2022/10/07 02:08:24;;;;;;;;;;;;;;;12.49;100.00;96660.78;10568272;28;2160;-77
2022/10/07 02:13:27;;;;;;;;;;;;;;;12.55;100.00;96665.09;10559634;28;2169;-76
2022/10/07 02:18:31;;;;;;;;;;;;;;;12.55;100.00;96662.41;10555903;28;2132;-76
2022/10/07 02:23:35;;;;;;;;;;;;;;;12.50;100.00;96654.28;10557403;28;2011;-75
2022/10/07 02:28:39;;;;;;;;;;;;;;;12.44;100.00;96656.16;10560178;28;1973;-75
2022/10/07 02:33:42;;;;;;;;;;;;;;;12.51;100.00;96655.91;10558030;28;2139;-75
2022/10/07 02:38:47;;;;;;;;;;;;;;;12.34;100.00;96648.00;10556148;28;1946;-75
2022/10/07 02:43:51;;;;;;;;;;;;;;;12.28;100.00;96646.38;10561886;28;2136;-77
2022/10/07 02:48:56;;;;;;;;;;;;;;;12.24;100.00;96637.22;10550477;28;2056;-76
2022/10/07 02:54:01;;;;;;;;;;;;;;;12.01;100.00;96643.81;10565326;28;2038;-76
2022/10/07 02:59:04;;;;;;;;;;;;;;;11.93;100.00;96636.25;10564933;28;1913;-78
2022/10/07 03:04:07;;;;;;;;;;;;;;;11.66;100.00;96636.31;10572291;28;1937;-76
2022/10/07 03:09:11;;;;;;;;;;;;;;;11.51;100.00;96632.41;10566109;28;2180;-75
2022/10/07 03:14:14;;;;;;;;;;;;;;;11.51;100.00;96629.72;10564983;28;2067;-76
2022/10/07 03:19:17;;;;;;;;;;;;;;;11.29;100.00;96632.53;10567710;28;2118;-75
2022/10/07 03:24:20;;;;;;;;;;;;;;;11.26;100.00;96627.69;10560389;28;1844;-77
2022/10/07 03:29:25;;;;;;;;;;;;;;;11.11;100.00;96627.53;10563857;28;2158;-78
2022/10/07 03:34:36;;;;;;;;;;;;;;;11.02;100.00;96634.47;10557110;28;2060;-79
2022/10/07 03:39:39;;;;;;;;;;;;;;;10.83;100.00;96623.25;10561861;28;1984;-76
2022/10/07 03:44:43;;;;;;;;;;;;;;;10.77;100.00;96622.38;10567154;28;1913;-76
2022/10/07 03:49:46;;;;;;;;;;;;;;;10.63;100.00;96626.53;10565422;28;2239;-74
2022/10/07 03:54:49;;;;;;;;;;;;;;;10.66;100.00;96628.72;10562457;28;2106;-76
2022/10/07 03:59:52;;;;;;;;;;;;;;;10.63;100.00;96623.06;10560927;28;2055;-74
2022/10/07 04:04:57;;;;;;;;;;;;;;;10.52;100.00;96620.25;10563244;28;2089;-75
2022/10/07 04:10:00;;;;;;;;;;;;;;;10.45;100.00;96610.75;10560050;28;2038;-75
2022/10/07 04:15:05;;;;;;;;;;;;;;;10.29;100.00;96605.19;10570337;28;2055;-76
2022/10/07 04:20:08;;;;;;;;;;;;;;;10.17;100.00;96609.84;10563936;28;1917;-74
2022/10/07 04:30:33;;;;;;;;;;;;;;;9.94;100.00;96596.69;10583393;27;2041;-75
2022/10/07 04:35:37;;;;;;;;;;;;;;;9.90;100.00;96592.84;10559353;28;2395;-74
2022/10/07 04:40:40;;;;;;;;;;;;;;;9.97;100.00;96588.91;10561767;28;2140;-79
2022/10/07 04:45:44;;;;;;;;;;;;;;;10.05;100.00;96579.59;10563342;28;2035;-74
2022/10/07 04:50:47;;;;;;;;;;;;;;;9.99;100.00;96580.63;10555822;28;1890;-75
2022/10/07 04:55:50;;;;;;;;;;;;;;;9.91;100.00;96583.72;10558123;28;2023;-77
2022/10/07 05:00:54;;;;;;;;;;;;;;;9.75;100.00;96574.69;10551390;28;1835;-74
2022/10/07 05:05:58;;;;;;;;;;;;;;;9.62;100.00;96581.22;10543604;28;2044;-77
2022/10/07 05:11:07;;;;;;;;;;;;;;;9.74;100.00;96587.31;10560104;28;2063;-74
2022/10/07 05:16:10;;;;;;;;;;;;;;;9.90;100.00;96572.19;10563403;28;2066;-75
2022/10/07 05:21:14;;;;;;;;;;;;;;;10.16;100.00;96581.34;10565544;28;2064;-75
2022/10/07 05:26:18;;;;;;;;;;;;;;;10.35;100.00;96578.38;10555361;28;2000;-74
2022/10/07 05:31:21;;;;;;;;;;;;;;;10.54;100.00;96580.47;10563513;28;2136;-75
2022/10/07 05:36:25;;;;;;;;;;;;;;;10.71;100.00;96577.69;10558677;28;2050;-75
2022/10/07 05:41:28;;;;;;;;;;;;;;;10.81;100.00;96572.41;10566557;28;1798;-75
2022/10/07 05:46:32;;;;;;;;;;;;;;;10.85;100.00;96575.38;10556329;28;2023;-74
2022/10/07 05:51:35;;;;;;;;;;;;;;;10.89;100.00;96567.63;10551340;28;2431;-77
2022/10/07 05:56:38;;;;;;;;;;;;;;;11.01;100.00;96576.34;10556925;28;2097;-76
2022/10/07 06:01:42;;;;;;;;;;;;;;;11.12;100.00;96567.25;10553639;28;2196;-76
2022/10/07 06:06:47;;;;;;;;;;;;;;;11.33;100.00;96569.06;10553594;28;1995;-75
2022/10/07 06:17:16;;;;;;;;;;;;;;;11.68;100.00;96575.72;10549111;28;2019;-76
2022/10/07 06:22:20;;;;;;;;;;;;;;;11.85;100.00;96584.47;10551557;28;2168;-75
2022/10/07 06:27:24;;;;;;;;;;;;;;;12.06;100.00;96576.47;10553127;28;2132;-76
2022/10/07 06:32:27;;;;;;;;;;;;;;;12.40;100.00;96568.78;10564546;28;1957;-76
2022/10/07 06:37:31;;;;;;;;;;;;;;;12.44;100.00;96567.97;10567119;27;1982;-75
2022/10/07 06:42:34;;;;;;;;;;;;;;;12.78;100.00;96566.69;10558383;28;2371;-79
2022/10/07 06:47:38;;;;;;;;;;;;;;;12.96;100.00;96575.09;10567948;28;2377;-76
2022/10/07 06:52:41;;;;;;;;;;;;;;;13.01;100.00;96566.19;10574181;28;2342;-78
2022/10/07 06:57:45;;;;;;;;;;;;;;;12.90;100.00;96568.06;10569000;28;1922;-77
2022/10/07 07:02:49;;;;;;;;;;;;;;;13.13;100.00;96565.91;10564826;28;1928;-74
2022/10/07 07:07:53;;;;;;;;;;;;;;;13.06;100.00;96563.50;10560512;28;2445;-76
2022/10/07 07:12:56;;;;;;;;;;;;;;;13.40;100.00;96566.47;10569864;28;1873;-75
2022/10/07 07:17:59;;;;;;;;;;;;;;;13.58;100.00;96564.28;10562453;28;1928;-75
2022/10/07 07:23:03;;;;;;;;;;;;;;;13.55;100.00;96565.66;10559998;28;2351;-75
2022/10/07 07:28:06;;;;;;;;;;;;;;;13.82;100.00;96565.31;10572479;28;2335;-76
2022/10/07 07:33:10;;;;;;;;;;;;;;;13.95;100.00;96564.72;10559697;28;2319;-74
2022/10/07 07:38:13;;;;;;;;;;;;;;;14.28;100.00;96552.41;10560363;28;2366;-75
2022/10/07 07:43:16;;;;;;;;;;;;;;;14.35;100.00;96546.72;10569358;28;2355;-76
2022/10/07 07:48:19;;;;;;;;;;;;;;;14.73;100.00;96549.75;10562406;28;1855;-75
2022/10/07 07:53:23;;;;;;;;;;;;;;;15.04;100.00;96543.03;10560268;28;2367;-76
2022/10/07 07:58:26;;;;;;;;;;;;;;;15.00;100.00;96541.97;10562946;28;2287;-74
2022/10/07 08:03:29;;;;;;;;;;;;;;;15.23;100.00;96535.03;10552376;28;1906;-77
2022/10/07 08:08:33;;;;;;;;;;;;;;;14.63;100.00;96531.69;10567747;28;2386;-75
2022/10/07 08:13:38;;;;;;;;;;;;;;;14.97;100.00;96530.94;10544759;28;2348;-76
2022/10/07 08:18:41;;;;;;;;;;;;;;;15.75;100.00;96527.22;10562060;28;2458;-76
2022/10/07 08:23:46;;;;;;;;;;;;;;;15.80;100.00;96532.59;10555948;28;1777;-77
2022/10/07 08:28:49;;;;;;;;;;;;;;;15.91;100.00;96523.28;10559849;28;2362;-74
2022/10/07 08:33:53;;;;;;;;;;;;;;;16.07;100.00;96524.69;10565261;28;2281;-76
2022/10/07 08:38:56;;;;;;;;;;;;;;;16.13;100.00;96515.38;10560629;28;2688;-76
2022/10/07 08:44:01;;;;;;;;;;;;;;;16.00;100.00;96507.97;10558669;28;1906;-76
2022/10/07 08:49:08;;;;;;;;;;;;;;;16.34;100.00;96499.63;10566567;28;2304;-75
2022/10/07 08:54:11;;;;;;;;;;;;;;;16.34;100.00;96499.63;10552869;28;2398;-77
2022/10/07 08:59:14;;;;;;;;;;;;;;;16.36;100.00;96496.66;10549279;28;2372;-76
2022/10/07 09:04:18;;;;;;;;;;;;;;;16.67;100.00;96497.81;10552649;28;2213;-76
2022/10/07 09:09:22;;;;;;;;;;;;;;;16.85;100.00;96498.13;10562659;28;2774;-75
2022/10/07 09:14:25;;;;;;;;;;;;;;;17.42;100.00;96482.47;10553985;28;2687;-76
2022/10/07 09:19:28;;;;;;;;;;;;;;;17.26;100.00;96482.75;10557503;28;2485;-76
2022/10/07 09:24:31;;;;;;;;;;;;;;;17.07;100.00;96479.28;10556693;28;1901;-75
2022/10/07 09:29:35;;;;;;;;;;;;;;;16.73;100.00;96474.13;10551662;28;2054;-76
2022/10/07 09:34:38;;;;;;;;;;;;;;;17.19;100.00;96466.03;10560326;27;1909;-76
2022/10/07 09:39:41;;;;;;;;;;;;;;;17.53;100.00;96454.81;10565355;28;2445;-76
2022/10/07 09:44:47;;;;;;;;;;;;;;;18.04;100.00;96458.44;10556342;28;2403;-76
2022/10/07 09:49:50;;;;;;;;;;;;;;;17.77;100.00;96462.81;10552429;28;1852;-76
2022/10/07 09:54:53;;;;;;;;;;;;;;;18.18;100.00;96459.22;10560882;28;2650;-75
2022/10/07 09:59:56;;;;;;;;;;;;;;;18.32;100.00;96460.03;10561278;28;2325;-75
2022/10/07 10:05:00;;;;;;;;;;;;;;;19.19;97.38;96447.06;10555188;28;2128;-75
2022/10/07 10:10:03;;;;;;;;;;;;;;;19.32;92.63;96446.16;10557566;28;2396;-78
2022/10/07 10:15:06;;;;;;;;;;;19.60;99.90;;;18.43;98.14;96443.44;10555735;28;2355;-76
2022/10/07 10:20:09;;;;;;;;;;;19.40;99.90;;;18.08;100.00;96435.78;10564270;28;1898;-75
2022/10/07 10:30:47;;;;;;;;;;;18.60;99.90;;;17.53;100.00;96434.97;10424434;28;2466;-78
2022/10/07 10:35:50;;;;;;;;;;;18.30;99.90;;;17.43;100.00;96427.00;10529153;28;1956;-79
2022/10/07 10:40:53;;;;;;;;;;;;;;;17.73;100.00;96420.19;10556300;28;1921;-76
2022/10/07 10:45:56;;;;;;;;;;;;;;;17.31;100.00;96419.38;10543588;28;2340;-76
2022/10/07 10:50:59;;;;;;;;;;;;;;;16.72;100.00;96418.22;10551684;28;2324;-76
2022/10/07 10:56:02;;;;;;;;;;;;;;;16.26;100.00;96409.97;10552343;28;2292;-75
2022/10/07 11:01:05;;;;;;;;;;;17.40;99.90;;;16.56;100.00;96401.38;10561362;28;2402;-76
2022/10/07 11:06:08;;;;;;;;;;;17.30;99.90;;;16.64;100.00;96400.69;10554112;28;2040;-76
2022/10/07 11:11:17;;;;;;;;;;;17.30;99.90;;;16.61;100.00;96381.50;10557860;28;2340;-75
2022/10/07 11:16:21;;;;;;;;;;;17.40;99.90;;;16.49;100.00;96382.75;10563405;28;2299;-75
2022/10/07 11:21:24;;;;;;;;;;;17.30;99.90;;;16.36;100.00;96371.84;10573502;28;2454;-75
2022/10/07 11:26:26;;;;;;;;;;;17.10;99.90;;;16.43;100.00;96361.41;10564662;28;1893;-75
2022/10/07 11:31:36;;;;;;;;;;;17.20;99.90;;;16.51;100.00;96363.44;10562964;28;2330;-76
2022/10/07 11:36:39;;;;;;;;;;;17.20;99.90;;;16.79;100.00;96347.25;10547647;28;2338;-75
2022/10/07 11:41:44;;;;;;;;;;;17.30;99.90;;;17.69;100.00;96346.56;10557964;28;1980;-75
2022/10/07 11:46:47;;;;;;;;;;;17.80;99.90;;;18.39;100.00;96339.03;10560741;28;2317;-76
2022/10/07 11:51:50;;;;;;;;;;;18.50;99.90;;;18.05;100.00;96337.63;10563077;28;2440;-76
2022/10/07 11:56:54;;;;;;;;;;;18.70;99.90;;;17.81;100.00;96324.28;10562036;28;2345;-76
2022/10/07 12:01:58;;;;;;;;;;;18.70;99.90;;;17.96;100.00;96309.56;10559070;28;1973;-76
2022/10/07 12:07:02;;;;;;;;;;;18.70;99.90;;;18.10;100.00;96305.69;10566473;28;2085;-76
2022/10/07 12:12:05;;;;;;;;;;;18.60;99.90;;;17.51;100.00;96299.38;10561570;28;1845;-75
2022/10/07 12:17:09;;;;;;;;;;;18.50;99.90;;;17.63;100.00;96295.34;10564508;28;1938;-76
2022/10/07 12:22:12;;;;;;;;;;;18.40;99.90;;;17.89;100.00;96287.44;10560954;28;2284;-73
2022/10/07 12:27:16;;;;;;;;;;;18.50;99.90;;;18.07;100.00;96275.59;10553681;28;1905;-76
2022/10/07 12:32:18;;;;;;;;;;;18.70;99.90;;;18.15;100.00;96263.94;10561229;28;2433;-76
2022/10/07 12:37:25;;;;;;;;;;;18.80;99.90;;;17.59;100.00;96267.94;10566751;28;1747;-76
2022/10/07 12:42:32;;;;;;;;;;;18.60;99.90;;;17.67;100.00;96258.25;10561817;28;2359;-76
2022/10/07 12:47:34;;;;;;;;;;;18.40;99.90;;;17.56;100.00;96258.50;10567844;28;2008;-76
2022/10/07 12:52:39;;;;;;;;;;;18.20;99.90;;;17.31;100.00;96239.25;10566009;28;2344;-73
2022/10/07 12:57:42;;;;;;;;;;;18.20;99.90;;;17.41;100.00;96244.44;10559443;28;1985;-78
2022/10/07 13:02:44;;;;;;;;;;;18.10;99.90;;;17.52;100.00;96256.69;10566763;28;2005;-73
2022/10/07 13:07:48;;;;;;;;;;;18.20;99.90;;;17.50;100.00;96248.06;10570326;28;2381;-76
2022/10/07 13:12:51;;;;;;;;;;;18.20;99.90;;;17.05;100.00;96247.94;10563150;28;2354;-74
2022/10/07 13:17:53;;;;;;;;;;;18.10;99.90;;;16.85;100.00;96248.31;10565299;28;1968;-76
2022/10/07 13:22:56;;;;;;;;;;;17.90;99.90;;;16.20;100.00;96238.34;10564153;28;2249;-76
2022/10/07 13:28:00;;;;;;;;;;;17.50;99.90;;;16.16;100.00;96238.16;10568344;28;2281;-75
2022/10/07 13:33:03;;;;;;;;;;;17.10;99.90;;;16.01;100.00;96229.47;10556817;28;2666;-78
2022/10/07 13:38:06;;;;;;;;;;;17.10;99.90;;;16.09;100.00;96221.44;10569911;28;2316;-74
2022/10/07 13:43:09;;;;;;;;;;;16.90;99.90;;;15.86;100.00;96222.41;10549461;28;2316;-75
2022/10/07 13:48:14;;;;;;;;;;;16.70;99.90;;;15.72;100.00;96222.34;10548155;28;2164;-75
2022/10/07 13:53:18;;;;;;;;;;;;;;;15.75;100.00;96212.81;10555668;28;1913;-76
2022/10/07 13:58:21;;;;;;;;;;;;;;;15.74;100.00;96219.34;10562672;28;1898;-75
2022/10/07 14:03:24;;;;;;;;;;;16.70;99.90;;;15.62;100.00;96208.94;10550950;28;2345;-77
2022/10/07 14:08:28;;;;;;;;;;;;;;;15.56;100.00;96208.19;10557328;28;2458;-79
2022/10/07 14:13:31;;;;;;;;;;;;;;;15.54;100.00;96204.97;10557927;28;2279;-78
2022/10/07 14:18:35;;;;;;;;;;;;;;;15.51;100.00;96202.03;10562930;28;1905;-76
2022/10/07 14:23:39;;;;;;;;;;;;;;;15.50;100.00;96201.25;10546651;28;2305;-76
2022/10/07 14:28:42;;;;;;;;;;;;;;;15.59;100.00;96201.41;10562161;28;2656;-75
2022/10/07 14:39:05;;;;;;;;;;;;;;;15.33;100.00;96192.81;10528760;28;2302;-76
2022/10/07 14:44:09;;;;;;;;;;;;;;;15.21;100.00;96193.28;10551988;28;2316;-76
2022/10/07 14:49:12;;;;;;;;;;;;;;;15.16;100.00;96177.09;10560322;28;2305;-76
2022/10/07 14:54:16;;;;;;;;;;;;;;;14.98;100.00;96176.00;10571685;28;2350;-76
2022/10/07 14:59:19;;;;;;;;;;;;;;;14.98;100.00;96170.56;10571499;28;2300;-76
2022/10/07 15:04:22;;;;;;;;;;;;;;;14.78;100.00;96174.38;10565255;28;2335;-76
2022/10/07 15:09:25;;;;;;;;;;;15.80;99.90;;;14.90;100.00;96168.53;10569816;28;2325;-75
2022/10/07 15:14:28;;;;;;;;;;;15.60;99.90;;;14.77;100.00;96163.84;10569372;28;2405;-76
2022/10/07 15:19:31;;;;;;;;;;;15.70;99.90;;;14.60;100.00;96165.09;10558009;28;2370;-75
2022/10/07 15:24:34;;;;;;;;;;;15.50;99.90;;;14.53;100.00;96164.66;10563288;28;2723;-76
2022/10/07 15:29:38;;;;;;;;;;;15.50;99.90;;;14.49;100.00;96166.31;10566056;28;2342;-77
2022/10/07 15:34:40;;;;;;;;;;;15.40;99.90;;;14.48;100.00;96161.22;10564652;28;2255;-76
2022/10/07 15:39:50;;;;;;;;;;;15.40;99.90;;;14.33;100.00;96154.84;10569038;28;1922;-75
2022/10/07 15:44:52;;;;;;;;;;;15.30;99.90;;;14.31;100.00;96156.22;10556601;28;2404;-74
2022/10/07 15:49:56;;;;;;;;;;;15.20;99.90;;;14.16;100.00;96148.28;10557950;28;2327;-74
2022/10/07 15:55:02;;;;;;;;;;;;;;;14.05;100.00;96159.19;10566236;28;1991;-74
2022/10/07 16:00:17;;;;;;;;;;;;;;;13.99;100.00;96148.72;10566949;28;2388;-76
2022/10/07 16:05:23;;;;;;;;;;;;;;;13.91;100.00;96152.84;10571073;28;2338;-75
2022/10/07 16:10:26;;;;;;;;;;;14.90;99.90;;;13.77;100.00;96154.63;10567558;28;2307;-75
2022/10/07 16:15:28;;;;;;;;;;;14.80;99.90;;;13.60;100.00;96156.91;10563377;28;1937;-74
2022/10/07 16:20:31;;;;;;;;;;;14.70;99.90;;;13.49;100.00;96153.53;10553947;28;2353;-74
2022/10/07 16:25:35;;;;;;;;;;;14.50;99.90;;;13.37;100.00;96151.19;10567999;28;2368;-76
2022/10/07 16:30:41;;;;;;;;;;;14.40;99.90;;;13.36;100.00;96156.84;10572760;28;1913;-75
2022/10/07 16:35:44;;;;;;;;;;;14.30;99.90;;;13.27;100.00;96164.75;10556188;28;2358;-75
2022/10/07 16:40:48;;;;;;;;;;;14.20;99.90;;;13.13;100.00;96169.13;10561207;28;2324;-75
2022/10/07 16:45:51;;;;;;;;;;;14.20;99.90;;;12.84;100.00;96167.13;10564539;28;2352;-75
2022/10/07 16:50:54;;;;;;;;;;;;;;;12.83;100.00;96159.31;10562510;28;1976;-76
2022/10/07 16:55:57;;;;;;;;;;;;;;;12.70;100.00;96160.72;10563233;28;2277;-75
2022/10/07 17:01:00;;;;;;;;;;;;;;;12.58;100.00;96168.34;10561077;28;2365;-75
2022/10/07 17:06:04;;;;;;;;;;;;;;;12.48;100.00;96169.19;10532981;28;2334;-75
2022/10/07 17:11:07;;;;;;;;;;;;;;;12.41;100.00;96161.41;10551807;28;2168;-74
2022/10/07 17:16:12;;;;;;;;;;;;;;;12.33;100.00;96164.66;10563691;28;2362;-76
2022/10/07 17:21:15;;;;;;;;;;;;;;;12.24;100.00;96171.69;10555024;28;2378;-76
2022/10/07 17:26:19;;;;;;;;;;;;;;;12.12;100.00;96163.91;10547523;28;2322;-76
2022/10/07 17:31:23;;;;;;;;;;;;;;;12.00;100.00;96162.59;10565810;28;2520;-75
2022/10/07 17:36:26;;;;;;;;;;;;;;;11.98;100.00;96164.75;10552568;28;1989;-75
2022/10/07 17:41:29;;;;;;;;;;;;;;;11.95;100.00;96160.72;10558246;28;2891;-76
2022/10/07 17:46:35;;;;;;;;;;;;;;;11.84;100.00;96168.03;10552475;28;2076;-77
2022/10/07 17:51:41;;;;;;;;;;;;;;;11.69;100.00;96162.59;10559075;28;2410;-78
2022/10/07 17:56:46;;;;;;;;;;;;;;;11.65;100.00;96169.63;10561791;28;2418;-75
2022/10/07 18:01:50;;;;;;;;;;;;;;;11.55;100.00;96177.69;10561187;28;2350;-76
2022/10/07 18:06:53;;;;;;;;;;;;;;;11.53;100.00;96153.75;10563532;28;2304;-75
2022/10/07 18:17:18;;;;;;;;;;;;;;;11.45;100.00;96156.16;10562550;28;2457;-77
2022/10/07 18:22:22;;;;;;;;;;;;;;;11.41;100.00;96165.84;10551528;28;2287;-76
2022/10/07 18:27:26;;;;;;;;;;;;;;;11.34;100.00;96153.47;10552904;28;1889;-75
2022/10/07 18:32:30;;;;;;;;;;;;;;;11.41;100.00;96160.47;10547575;28;2333;-77
2022/10/07 18:37:33;;;;;;;;;;;;;;;11.30;100.00;96160.47;10558304;28;2667;-74
2022/10/07 18:42:37;;;;;;;;;;;;;;;11.24;100.00;96155.34;10558524;28;2366;-76
2022/10/07 18:47:41;;;;;;;;;;;;;;;11.26;100.00;96154.00;10567058;28;1785;-75
2022/10/07 18:52:44;;;;;;;;;;;;;;;11.27;100.00;96155.63;10557713;28;1752;-75
2022/10/07 18:57:48;;;;;;;;;;;;;;;11.31;100.00;96155.88;10561043;28;2477;-75
2022/10/07 19:02:51;;;;;;;;;;;;;;;11.21;100.00;96154.00;10562616;28;2339;-75
2022/10/07 19:07:55;;;;;;;;;;;;;;;11.18;100.00;96159.91;10563489;28;1974;-76
2022/10/07 19:18:25;;;;;;;;;;;;;;;11.13;100.00;96154.50;10541815;28;2350;-76
2022/10/07 19:23:29;;;;;;;;;;;;;;;11.14;100.00;96149.97;10553866;28;2077;-74
2022/10/07 19:28:32;;;;;;;;;;;;;;;11.05;100.00;96152.38;10559022;28;2394;-77
2022/10/07 19:33:35;;;;;;;;;;;;;;;11.04;100.00;96151.56;10560565;28;2709;-76
2022/10/07 19:38:40;;;;;;;;;;;;;;;11.07;100.00;96152.94;10544246;28;1997;-75
2022/10/07 19:43:45;;;;;;;;;;;;;;;10.96;100.00;96151.28;10572164;28;1924;-76
2022/10/07 19:48:48;;;;;;;;;;;;;;;10.88;100.00;96162.53;10557372;28;2649;-74
2022/10/07 19:53:51;;;;;;;;;;;;;;;10.89;100.00;96154.22;10567253;28;2310;-75
2022/10/07 19:58:55;;;;;;;;;;;;;;;10.84;100.00;96148.84;10560445;28;2316;-75
2022/10/07 20:03:58;;;;;;;;;;;;;;;10.80;100.00;96150.44;10558173;28;2351;-76
2022/10/07 20:09:01;;;;;;;;;;;;;;;10.72;100.00;96149.06;10560847;28;2549;-76
2022/10/07 20:14:05;;;;;;;;;;;;;;;10.63;100.00;96144.50;10556032;28;2094;-75
2022/10/07 20:19:09;;;;;;;;;;;;;;;10.61;100.00;96141.25;10568737;28;2340;-75
2022/10/07 20:24:14;;;;;;;;;;;;;;;10.61;100.00;96143.94;10558839;28;2121;-75
2022/10/07 20:29:17;;;;;;;;;;;;;;;10.63;100.00;96144.50;10570419;28;2633;-75
2022/10/07 20:34:27;;;;;;;;;;;;;;;10.58;100.00;96147.97;10558521;28;2267;-75
2022/10/07 20:44:51;;;;;;;;;;;;;;;10.49;100.00;96138.78;10563485;28;2225;-75
2022/10/07 20:49:56;;;;;;;;;;;;;;;10.44;100.00;96130.72;10563501;28;2343;-75
2022/10/07 20:54:59;;;;;;;;;;;;;;;10.37;100.00;96130.13;10565606;28;2113;-74
2022/10/07 21:00:14;;;;;;;;;;;;;;;10.32;100.00;96122.06;10568849;28;2336;-75
2022/10/07 21:05:23;;;;;;;;;;;;;;;10.24;100.00;96126.88;10555201;28;2539;-76
2022/10/07 21:10:27;;;;;;;;;;;;;;;10.16;100.00;96119.28;10560583;28;2288;-76
2022/10/07 21:15:30;;;;;;;;;;;;;;;10.12;100.00;96112.03;10558516;28;2217;-75
2022/10/07 21:20:34;;;;;;;;;;;;;;;10.09;100.00;96115.22;10560706;28;2336;-74
2022/10/07 21:25:38;;;;;;;;;;;;;;;10.12;100.00;96104.78;10561688;28;2358;-79
2022/10/07 21:30:42;;;;;;;;;;;;;;;10.11;100.00;96113.06;10561934;28;2449;-77
2022/10/07 21:35:45;;;;;;;;;;;;;;;10.13;100.00;96109.06;10562357;28;2261;-76
2022/10/07 21:40:49;;;;;;;;;;;;;;;10.08;100.00;96109.03;10559130;28;2242;-75
2022/10/07 21:45:52;;;;;;;;;;;;;;;10.14;100.00;96102.63;10554286;28;2124;-75
2022/10/07 21:50:55;;;;;;;;;;;;;;;10.08;100.00;96110.94;10557164;28;2317;-74
2022/10/07 21:55:59;;;;;;;;;;;;;;;10.08;100.00;96110.94;10556057;28;2341;-75
2022/10/07 22:01:02;;;;;;;;;;;;;;;10.09;100.00;96107.97;10560705;28;2360;-78
2022/10/07 22:06:05;;;;;;;;;;;;;;;9.98;100.00;96100.94;10537355;28;2411;-77
2022/10/07 22:11:09;;;;;;;;;;;;;;;9.96;100.00;96093.13;10559845;28;2475;-74
2022/10/07 22:16:13;;;;;;;;;;;;;;;9.94;100.00;96095.28;10556950;28;2498;-75
2022/10/07 22:21:18;;;;;;;;;;;;;;;9.95;100.00;96085.34;10554064;28;2367;-76
2022/10/07 22:26:21;;;;;;;;;;;;;;;9.87;100.00;96078.59;10551789;28;2267;-75
2022/10/07 22:31:29;;;;;;;;;;;;;;;9.82;100.00;96083.16;10563558;28;1975;-77
2022/10/07 22:36:32;;;;;;;;;;;;;;;9.74;100.00;96090.63;10557048;28;1986;-75
2022/10/07 22:41:36;;;;;;;;;;;;;;;9.69;100.00;96082.53;10558840;28;2311;-75
2022/10/07 22:46:40;;;;;;;;;;;;;;;9.60;100.00;96084.06;10564885;28;2300;-76
2022/10/07 22:51:43;;;;;;;;;;;;;;;9.55;100.00;96075.22;10561517;28;2339;-77
2022/10/07 22:56:47;;;;;;;;;;;;;;;9.48;100.00;96064.72;10559303;28;2379;-78
2022/10/07 23:01:50;;;;;;;;;;;;;;;9.39;100.00;96072.41;10550249;28;2437;-75
2022/10/07 23:06:59;;;;;;;;;;;;;;;9.46;100.00;96067.63;10560774;28;2299;-75
2022/10/07 23:12:04;;;;;;;;;;;;;;;9.40;100.00;96062.50;10559268;28;2004;-75
2022/10/07 23:17:09;;;;;;;;;;;;;;;9.35;100.00;96063.28;10568491;28;2323;-76
2022/10/07 23:22:12;;;;;;;;;;;;;;;9.33;100.00;96056.53;10554275;28;2358;-74
2022/10/07 23:27:15;;;;;;;;;;;;;;;9.27;100.00;96057.56;10568900;28;1986;-75
2022/10/07 23:32:19;;;;;;;;;;;;;;;9.31;100.00;96053.31;10568753;28;2346;-75
2022/10/07 23:37:24;;;;;;;;;;;;;;;9.26;100.00;96053.28;10567834;28;2401;-76
2022/10/07 23:42:37;;;;;;;;;;;;;;;9.31;100.00;96053.31;10586404;27;2332;-74
2022/10/07 23:47:42;;;;;;;;;;;;;;;9.20;100.00;96047.06;10551427;28;2416;-75
2022/10/07 23:52:45;;;;;;;;;;;;;;;9.21;100.00;96041.44;10562019;28;2013;-76
2022/10/07 23:57:49;;;;;;;;;;;;;;;9.25;100.00;96041.75;10564560;28;2583;-75
